createdAt,value
2019-01-20T00:01:57.701Z,-8.11
2019-01-20T00:04:24.751Z,-8.11
2019-01-20T00:06:51.771Z,-8.15
2019-01-20T00:09:18.833Z,-8.26
2019-01-20T00:11:45.879Z,-8.40
2019-01-20T00:14:12.919Z,-8.49
2019-01-20T00:16:39.967Z,-8.48
2019-01-20T00:19:07.014Z,-8.42
2019-01-20T00:21:34.065Z,-8.40
2019-01-20T00:24:01.098Z,-8.37
2019-01-20T00:26:28.133Z,-8.34
2019-01-20T00:28:55.184Z,-8.29
2019-01-20T00:31:22.204Z,-8.25
2019-01-20T00:33:49.231Z,-8.22
2019-01-20T00:36:16.292Z,-8.20
2019-01-20T00:38:43.339Z,-8.18
2019-01-20T00:41:10.404Z,-8.16
2019-01-20T00:43:37.471Z,-8.15
2019-01-20T00:46:04.505Z,-8.19
2019-01-20T00:48:31.569Z,-8.21
2019-01-20T00:50:58.612Z,-8.26
2019-01-20T00:53:25.670Z,-8.27
2019-01-20T00:55:52.702Z,-8.30
2019-01-20T00:58:19.735Z,-8.35
2019-01-20T01:00:46.764Z,-8.38
2019-01-20T01:03:13.806Z,-8.41
2019-01-20T01:05:40.868Z,-8.43
2019-01-20T01:08:08.824Z,-8.43
2019-01-20T01:10:35.870Z,-8.46
2019-01-20T01:13:03.223Z,-8.44
2019-01-20T01:15:30.292Z,-8.43
2019-01-20T01:17:57.353Z,-8.43
2019-01-20T01:20:24.413Z,-8.44
2019-01-20T01:22:51.452Z,-8.47
2019-01-20T01:25:18.517Z,-8.48
2019-01-20T01:27:45.536Z,-8.50
2019-01-20T01:30:15.510Z,-8.50
2019-01-20T01:32:42.534Z,-8.48
2019-01-20T01:35:09.583Z,-8.46
2019-01-20T01:37:36.633Z,-8.45
2019-01-20T01:40:05.073Z,-8.46
2019-01-20T01:42:32.109Z,-8.48
2019-01-20T01:44:59.134Z,-8.51
2019-01-20T01:47:26.162Z,-8.52
2019-01-20T01:49:53.189Z,-8.52
2019-01-20T01:52:20.202Z,-8.53
2019-01-20T01:54:47.243Z,-8.53
2019-01-20T01:57:14.291Z,-8.55
2019-01-20T01:59:41.391Z,-8.60
2019-01-20T02:02:08.429Z,-8.63
2019-01-20T02:04:35.458Z,-8.66
2019-01-20T02:07:02.494Z,-8.75
2019-01-20T02:09:29.538Z,-8.78
2019-01-20T02:11:56.584Z,-8.77
2019-01-20T02:14:23.629Z,-8.77
2019-01-20T02:16:50.681Z,-8.87
2019-01-20T02:19:17.717Z,-8.94
2019-01-20T02:21:44.747Z,-8.90
2019-01-20T02:24:11.775Z,-8.88
2019-01-20T02:26:38.803Z,-8.88
2019-01-20T02:29:05.849Z,-8.88
2019-01-20T02:31:32.875Z,-8.90
2019-01-20T02:34:00.012Z,-8.89
2019-01-20T02:36:27.032Z,-8.89
2019-01-20T02:38:54.074Z,-8.88
2019-01-20T02:41:21.102Z,-8.91
2019-01-20T02:43:48.131Z,-8.92
2019-01-20T02:46:15.228Z,-8.92
2019-01-20T02:48:42.283Z,-8.93
2019-01-20T02:51:09.348Z,-8.91
2019-01-20T02:53:36.393Z,-8.90
2019-01-20T02:56:03.516Z,-8.86
2019-01-20T02:58:30.545Z,-8.83
2019-01-20T03:00:57.574Z,-8.82
2019-01-20T03:03:24.636Z,-8.82
2019-01-20T03:05:51.668Z,-8.82
2019-01-20T03:08:18.734Z,-8.91
2019-01-20T03:10:45.764Z,-9.03
2019-01-20T03:13:12.807Z,-9.03
2019-01-20T03:15:39.911Z,-9.01
2019-01-20T03:18:06.986Z,-8.99
2019-01-20T03:20:34.052Z,-8.94
2019-01-20T03:23:01.064Z,-8.89
2019-01-20T03:25:28.138Z,-8.85
2019-01-20T03:27:55.145Z,-8.83
2019-01-20T03:30:22.487Z,-8.83
2019-01-20T03:32:49.517Z,-8.84
2019-01-20T03:35:18.840Z,-8.84
2019-01-20T03:37:46.067Z,-8.83
2019-01-20T03:40:14.399Z,-8.80
2019-01-20T03:42:41.428Z,-8.76
2019-01-20T03:45:10.336Z,-8.71
2019-01-20T03:47:37.439Z,-8.66
2019-01-20T03:50:05.310Z,-8.61
2019-01-20T03:52:32.355Z,-8.56
2019-01-20T03:54:59.385Z,-8.53
2019-01-20T03:57:26.414Z,-8.51
2019-01-20T03:59:53.446Z,-8.51
2019-01-20T04:02:21.780Z,-8.49
2019-01-20T04:04:48.803Z,-8.50
2019-01-20T04:07:15.816Z,-8.52
2019-01-20T04:09:42.859Z,-8.49
2019-01-20T04:12:09.974Z,-8.49
2019-01-20T04:14:37.017Z,-8.47
2019-01-20T04:17:04.083Z,-8.47
2019-01-20T04:19:31.161Z,-8.44
2019-01-20T04:21:58.193Z,-8.43
2019-01-20T04:24:25.217Z,-8.42
2019-01-20T04:26:52.251Z,-8.43
2019-01-20T04:29:19.277Z,-8.43
2019-01-20T04:31:46.305Z,-8.44
2019-01-20T04:34:13.324Z,-8.48
2019-01-20T04:36:40.380Z,-8.53
2019-01-20T04:39:07.411Z,-8.57
2019-01-20T04:41:34.782Z,-8.53
2019-01-20T04:44:01.813Z,-8.53
2019-01-20T04:46:28.833Z,-8.54
2019-01-20T04:48:55.883Z,-8.54
2019-01-20T04:51:22.891Z,-8.54
2019-01-20T04:53:50.129Z,-8.55
2019-01-20T04:56:17.141Z,-8.56
2019-01-20T04:58:44.217Z,-8.57
2019-01-20T05:01:11.248Z,-8.60
2019-01-20T05:03:38.292Z,-8.65
2019-01-20T05:06:05.333Z,-8.68
2019-01-20T05:08:32.396Z,-8.71
2019-01-20T05:10:59.414Z,-8.78
2019-01-20T05:13:26.423Z,-8.90
2019-01-20T05:15:53.455Z,-9.01
2019-01-20T05:18:20.526Z,-9.10
2019-01-20T05:20:47.570Z,-9.12
2019-01-20T05:23:14.604Z,-9.20
2019-01-20T05:25:41.648Z,-9.28
2019-01-20T05:28:08.666Z,-9.34
2019-01-20T05:30:35.687Z,-9.42
2019-01-20T05:33:02.716Z,-9.46
2019-01-20T05:35:29.740Z,-9.52
2019-01-20T05:37:56.790Z,-9.59
2019-01-20T05:40:23.828Z,-9.61
2019-01-20T05:42:50.851Z,-9.61
2019-01-20T05:45:19.895Z,-9.70
2019-01-20T05:47:46.925Z,-9.71
2019-01-20T05:50:14.072Z,-9.67
2019-01-20T05:52:41.114Z,-9.65
2019-01-20T05:55:08.613Z,-9.71
2019-01-20T05:57:35.643Z,-9.73
2019-01-20T06:00:04.645Z,-9.74
2019-01-20T06:02:31.688Z,-9.74
2019-01-20T06:04:58.721Z,-9.71
2019-01-20T06:07:25.759Z,-9.65
2019-01-20T06:09:52.786Z,-9.29
2019-01-20T06:12:19.843Z,-7.48
2019-01-20T06:14:46.902Z,-6.51
2019-01-20T06:17:13.912Z,-5.72
2019-01-20T06:22:23.299Z,-4.54
2019-01-20T06:24:50.348Z,-5.30
2019-01-20T06:27:17.394Z,-6.03
2019-01-20T06:29:44.450Z,-6.65
2019-01-20T06:32:11.481Z,-7.13
2019-01-20T06:34:38.519Z,-7.51
2019-01-20T06:37:05.572Z,-7.82
2019-01-20T06:39:32.803Z,-8.05
2019-01-20T06:41:59.857Z,-8.22
2019-01-20T06:44:26.909Z,-8.35
2019-01-20T06:46:53.981Z,-8.48
2019-01-20T06:49:21.052Z,-8.58
2019-01-20T06:51:48.090Z,-8.67
2019-01-20T06:54:15.145Z,-8.72
2019-01-20T06:56:42.194Z,-8.73
2019-01-20T06:59:09.260Z,-8.61
2019-01-20T07:01:36.396Z,-8.16
2019-01-20T07:04:03.559Z,-7.15
2019-01-20T07:06:30.676Z,-6.11
2019-01-20T07:08:57.775Z,-5.69
2019-01-20T07:11:24.822Z,-5.19
2019-01-20T07:13:51.951Z,-4.82
2019-01-20T07:16:19.020Z,-5.15
2019-01-20T07:18:46.072Z,-5.78
2019-01-20T07:21:13.187Z,-6.34
2019-01-20T07:23:40.258Z,-6.75
2019-01-20T07:26:07.407Z,-7.10
2019-01-20T07:28:34.528Z,-7.34
2019-01-20T07:31:01.616Z,-7.51
2019-01-20T07:33:28.670Z,-7.63
2019-01-20T07:35:55.733Z,-7.76
2019-01-20T07:38:22.787Z,-7.89
2019-01-20T07:40:49.832Z,-8.02
2019-01-20T07:43:17.266Z,-8.10
2019-01-20T07:45:44.324Z,-8.15
2019-01-20T07:48:11.386Z,-8.18
2019-01-20T07:50:38.426Z,-8.21
2019-01-20T07:53:05.488Z,-8.24
2019-01-20T07:55:32.568Z,-8.27
2019-01-20T07:57:59.673Z,-8.26
2019-01-20T08:00:26.750Z,-8.23
2019-01-20T08:02:53.823Z,-8.22
2019-01-20T08:05:20.863Z,-8.19
2019-01-20T08:07:48.086Z,-8.19
2019-01-20T08:10:17.429Z,-8.19
2019-01-20T08:12:44.465Z,-8.18
2019-01-20T08:15:11.646Z,-8.17
2019-01-20T08:17:38.690Z,-8.10
2019-01-20T08:20:08.572Z,-7.97
2019-01-20T08:22:35.643Z,-7.82
2019-01-20T08:25:02.953Z,-7.67
2019-01-20T08:27:30.000Z,-7.57
2019-01-20T08:29:57.036Z,-7.48
2019-01-20T08:32:24.096Z,-7.39
2019-01-20T08:34:51.144Z,-7.27
2019-01-20T08:37:18.253Z,-7.19
2019-01-20T08:39:45.351Z,-7.09
2019-01-20T08:42:12.649Z,-6.96
2019-01-20T08:44:41.887Z,-6.90
2019-01-20T08:47:24.017Z,-6.87
2019-01-20T08:49:51.087Z,-6.72
2019-01-20T08:52:18.189Z,-6.40
2019-01-20T08:54:45.213Z,-6.28
2019-01-20T08:57:12.275Z,-6.23
2019-01-20T08:59:39.313Z,-6.21
2019-01-20T09:02:06.599Z,-6.24
2019-01-20T09:04:33.651Z,-6.25
2019-01-20T09:07:00.704Z,-6.30
2019-01-20T09:09:27.775Z,-6.35
2019-01-20T09:11:54.851Z,-6.34
2019-01-20T09:14:21.941Z,-6.35
2019-01-20T09:16:49.005Z,-6.36
2019-01-20T09:19:16.054Z,-6.34
2019-01-20T09:21:43.134Z,-6.35
2019-01-20T09:24:10.195Z,-6.33
2019-01-20T09:26:37.242Z,-6.32
2019-01-20T09:29:04.312Z,-6.27
2019-01-20T09:31:31.404Z,-6.25
2019-01-20T09:33:58.455Z,-6.24
2019-01-20T09:36:25.788Z,-6.22
2019-01-20T09:38:52.830Z,-6.24
2019-01-20T09:41:19.885Z,-6.22
2019-01-20T09:43:47.561Z,-6.21
2019-01-20T09:46:16.313Z,-6.20
2019-01-20T09:48:43.507Z,-6.16
2019-01-20T09:51:10.556Z,-6.13
2019-01-20T09:53:37.657Z,-6.08
2019-01-20T09:56:04.826Z,-6.02
2019-01-20T09:58:31.915Z,-5.97
2019-01-20T10:00:58.994Z,-5.90
2019-01-20T10:03:26.105Z,-5.83
2019-01-20T10:05:53.490Z,-5.76
2019-01-20T10:08:20.599Z,-5.68
2019-01-20T10:10:47.688Z,-5.64
2019-01-20T10:13:14.789Z,-5.55
2019-01-20T10:15:41.868Z,-5.50
2019-01-20T10:18:08.960Z,-5.45
2019-01-20T10:20:36.009Z,-5.40
2019-01-20T10:23:03.098Z,-5.37
2019-01-20T10:25:30.153Z,-5.32
2019-01-20T10:27:57.261Z,-5.27
2019-01-20T10:30:32.027Z,-5.20
2019-01-20T10:32:59.344Z,-5.16
2019-01-20T10:35:46.065Z,-5.12
2019-01-20T10:38:13.345Z,-5.06
2019-01-20T10:40:40.444Z,-5.00
2019-01-20T10:43:07.550Z,-4.92
2019-01-20T10:45:34.619Z,-4.84
2019-01-20T10:48:01.656Z,-4.73
2019-01-20T10:50:28.742Z,-4.66
2019-01-20T10:52:55.821Z,-4.58
2019-01-20T10:55:22.904Z,-4.48
2019-01-20T10:57:49.992Z,-4.39
2019-01-20T11:00:26.221Z,-4.32
2019-01-20T11:02:53.299Z,-4.22
2019-01-20T11:05:24.594Z,-4.12
2019-01-20T11:07:49.396Z,-4.03
2019-01-20T11:10:16.529Z,-3.93
2019-01-20T11:12:43.970Z,-3.81
2019-01-20T11:15:11.162Z,-3.72
2019-01-20T11:17:38.238Z,-3.64
2019-01-20T11:20:07.589Z,-3.54
2019-01-20T11:22:34.693Z,-3.47
2019-01-20T11:25:01.968Z,-3.41
2019-01-20T11:27:29.330Z,-3.39
2019-01-20T11:29:56.564Z,-3.34
2019-01-20T11:32:23.694Z,-3.30
2019-01-20T11:34:51.091Z,-3.25
2019-01-20T11:37:18.176Z,-3.22
2019-01-20T11:39:45.360Z,-3.16
2019-01-20T11:42:12.548Z,-3.09
2019-01-20T11:44:39.617Z,-3.05
2019-01-20T11:47:06.741Z,-3.03
2019-01-20T11:49:34.218Z,-2.99
2019-01-20T11:52:01.659Z,-2.96
2019-01-20T11:54:28.976Z,-2.93
2019-01-20T11:56:56.148Z,-2.89
2019-01-20T11:59:23.611Z,-2.86
2019-01-20T12:01:50.995Z,-2.81
2019-01-20T12:04:18.167Z,-2.75
2019-01-20T12:06:45.448Z,-2.68
2019-01-20T12:09:12.907Z,-2.61
2019-01-20T12:11:40.037Z,-2.54
2019-01-20T12:14:07.212Z,-2.41
2019-01-20T12:16:34.298Z,-2.31
2019-01-20T12:19:01.450Z,-2.17
2019-01-20T12:21:28.540Z,-1.98
2019-01-20T12:23:55.670Z,-1.76
2019-01-20T12:26:23.649Z,-1.57
2019-01-20T12:28:50.804Z,-1.38
2019-01-20T12:31:18.292Z,-1.25
2019-01-20T12:33:45.736Z,-1.15
2019-01-20T12:36:12.879Z,-1.03
2019-01-20T12:38:40.043Z,-1.02
2019-01-20T12:41:07.151Z,-1.06
2019-01-20T12:43:34.264Z,-1.07
2019-01-20T12:46:01.408Z,-1.00
2019-01-20T12:48:28.536Z,-1.00
2019-01-20T12:50:55.901Z,-0.98
2019-01-20T12:53:23.050Z,-0.92
2019-01-20T12:55:50.793Z,-0.87
2019-01-20T12:58:18.407Z,-0.84
2019-01-20T13:00:45.520Z,-0.82
2019-01-20T13:03:12.652Z,-0.79
2019-01-20T13:05:39.839Z,-0.80
2019-01-20T13:08:06.997Z,-0.82
2019-01-20T13:10:34.110Z,-0.81
2019-01-20T13:13:02.813Z,-0.79
2019-01-20T13:15:29.972Z,-0.81
2019-01-20T13:17:57.394Z,-0.73
2019-01-20T13:20:24.695Z,-0.67
2019-01-20T13:22:51.842Z,-0.62
2019-01-20T13:25:26.832Z,-0.53
2019-01-20T13:27:53.986Z,-0.53
2019-01-20T13:30:22.804Z,-0.47
2019-01-20T13:32:49.964Z,-0.47
2019-01-20T13:35:18.240Z,-0.46
2019-01-20T13:37:47.591Z,-0.49
2019-01-20T13:40:24.570Z,-0.64
2019-01-20T13:42:54.022Z,-0.82
2019-01-20T13:45:21.142Z,-0.96
2019-01-20T13:47:48.778Z,-1.07
2019-01-20T13:50:18.089Z,-1.14
2019-01-20T13:52:45.195Z,-1.17
2019-01-20T13:55:13.489Z,-1.20
2019-01-20T13:57:40.585Z,-1.16
2019-01-20T14:00:13.001Z,-1.12
2019-01-20T14:02:40.137Z,-1.13
2019-01-20T14:05:07.333Z,-1.11
2019-01-20T14:07:34.723Z,-1.11
2019-01-20T14:10:01.937Z,-1.05
2019-01-20T14:12:29.041Z,-1.04
2019-01-20T14:14:56.182Z,-1.07
2019-01-20T14:17:23.361Z,-1.08
2019-01-20T14:19:50.664Z,-1.09
2019-01-20T14:22:17.851Z,-1.15
2019-01-20T14:24:44.978Z,-1.17
2019-01-20T14:27:12.139Z,-1.21
2019-01-20T14:29:39.287Z,-1.27
2019-01-20T14:32:06.736Z,-1.37
2019-01-20T14:34:33.841Z,-1.39
2019-01-20T14:37:01.013Z,-1.40
2019-01-20T14:39:28.395Z,-1.40
2019-01-20T14:41:55.551Z,-1.41
2019-01-20T14:44:22.735Z,-1.38
2019-01-20T14:46:50.451Z,-1.35
2019-01-20T14:49:19.043Z,-1.34
2019-01-20T14:51:47.627Z,-1.37
2019-01-20T14:54:14.978Z,-1.43
2019-01-20T14:56:42.675Z,-1.49
2019-01-20T14:59:10.139Z,-1.56
2019-01-20T15:01:37.669Z,-1.61
2019-01-20T15:04:05.168Z,-1.65
2019-01-20T15:06:32.366Z,-1.69
2019-01-20T15:08:59.606Z,-1.72
2019-01-20T15:11:26.889Z,-1.72
2019-01-20T15:13:55.149Z,-1.72
2019-01-20T15:16:22.531Z,-1.73
2019-01-20T15:18:49.699Z,-1.79
2019-01-20T15:21:17.026Z,-1.81
2019-01-20T15:23:45.874Z,-1.81
2019-01-20T15:26:13.072Z,-1.79
2019-01-20T15:28:40.259Z,-1.35
2019-01-20T15:31:07.659Z,-0.86
2019-01-20T15:33:35.794Z,0.06
2019-01-20T15:36:03.203Z,1.03
2019-01-20T15:38:30.811Z,1.80
2019-01-20T15:40:58.970Z,2.28
2019-01-20T15:43:26.187Z,2.05
2019-01-20T15:45:53.384Z,1.50
2019-01-20T15:48:21.612Z,0.89
2019-01-20T15:50:49.441Z,0.40
2019-01-20T15:53:16.733Z,0.03
2019-01-20T15:55:44.393Z,-0.23
2019-01-20T15:58:11.819Z,-0.48
2019-01-20T16:00:39.363Z,-0.67
2019-01-20T16:03:09.797Z,-0.81
2019-01-20T16:05:37.274Z,-0.91
2019-01-20T16:08:05.894Z,-1.01
2019-01-20T16:10:33.637Z,-1.13
2019-01-20T16:13:03.225Z,-1.20
2019-01-20T16:15:35.810Z,-1.25
2019-01-20T16:18:03.746Z,-1.32
2019-01-20T16:20:31.684Z,-1.36
2019-01-20T16:22:59.784Z,-1.41
2019-01-20T16:25:29.348Z,-1.44
2019-01-20T16:27:56.588Z,-1.49
2019-01-20T16:30:26.256Z,-1.53
2019-01-20T16:32:53.824Z,-1.57
2019-01-20T16:35:22.932Z,-1.59
2019-01-20T16:37:52.053Z,-1.60
2019-01-20T16:40:23.283Z,-1.62
2019-01-20T16:42:50.755Z,-1.62
2019-01-20T16:45:31.541Z,-1.20
2019-01-20T16:47:54.336Z,-1.20
2019-01-20T16:50:22.392Z,-0.53
2019-01-20T16:52:54.584Z,-0.17
2019-01-20T16:55:19.137Z,-0.12
2019-01-20T16:57:47.003Z,-0.26
2019-01-20T17:00:26.960Z,-0.41
2019-01-20T17:02:55.083Z,-0.55
2019-01-20T17:05:26.552Z,-0.69
2019-01-20T17:07:51.708Z,-0.84
2019-01-20T17:10:24.087Z,-0.98
2019-01-20T17:12:54.266Z,-1.06
2019-01-20T17:15:24.201Z,-1.17
2019-01-20T17:17:51.864Z,-1.24
2019-01-20T17:20:20.257Z,-1.31
2019-01-20T17:22:49.014Z,-1.40
2019-01-20T17:25:17.034Z,-1.40
2019-01-20T17:27:48.124Z,-1.53
2019-01-20T17:30:21.018Z,-1.58
2019-01-20T17:32:48.799Z,-1.58
2019-01-20T17:35:16.675Z,-1.56
2019-01-20T17:37:45.924Z,-1.59
2019-01-20T17:40:16.147Z,-1.59
2019-01-20T17:42:44.000Z,-1.62
2019-01-20T17:45:13.230Z,-1.63
2019-01-20T17:47:41.363Z,-1.65
2019-01-20T17:50:15.946Z,-1.66
2019-01-20T17:52:45.796Z,-1.69
2019-01-20T17:55:13.518Z,-1.68
2019-01-20T17:57:42.743Z,-1.67
2019-01-20T18:00:16.257Z,-1.64
2019-01-20T18:02:44.400Z,-1.65
2019-01-20T18:05:13.539Z,-1.68
2019-01-20T18:07:41.288Z,-1.69
2019-01-20T18:10:10.630Z,-1.71
2019-01-20T18:12:38.207Z,-1.73
2019-01-20T18:15:08.373Z,-1.75
2019-01-20T18:17:38.719Z,-1.77
2019-01-20T18:20:10.231Z,-1.58
2019-01-20T18:22:37.991Z,-1.38
2019-01-20T18:25:08.863Z,-1.25
2019-01-20T18:27:37.099Z,-1.10
2019-01-20T18:30:06.988Z,-0.90
2019-01-20T18:32:35.140Z,-0.86
2019-01-20T18:35:02.817Z,-0.78
2019-01-20T18:37:31.752Z,-1.06
2019-01-20T18:39:59.507Z,-1.06
2019-01-20T18:42:29.169Z,-1.38
2019-01-20T18:44:57.822Z,-1.38
2019-01-20T18:47:25.555Z,-1.51
2019-01-20T18:49:56.055Z,-1.67
2019-01-20T18:52:24.084Z,-1.67
2019-01-20T18:54:52.729Z,-1.72
2019-01-20T18:57:21.379Z,-1.76
2019-01-20T18:59:49.959Z,-1.78
2019-01-20T19:02:18.294Z,-1.80
2019-01-20T19:04:46.826Z,-1.83
2019-01-20T19:07:15.283Z,-1.84
2019-01-20T19:09:44.077Z,-1.86
2019-01-20T19:12:12.776Z,-1.90
2019-01-20T19:14:41.619Z,-1.92
2019-01-20T19:17:10.482Z,-1.96
2019-01-20T19:19:39.391Z,-1.99
2019-01-20T19:22:08.696Z,-2.04
2019-01-20T19:24:41.732Z,-2.10
2019-01-20T19:27:09.943Z,-2.16
2019-01-20T19:29:40.476Z,-2.20
2019-01-20T19:32:08.456Z,-2.23
2019-01-20T19:34:37.832Z,-2.24
2019-01-20T19:37:07.699Z,-2.23
2019-01-20T19:39:35.753Z,-2.22
2019-01-20T19:42:03.769Z,-2.22
2019-01-20T19:44:35.174Z,-2.22
2019-01-20T19:47:04.221Z,-2.21
2019-01-20T19:49:36.758Z,-2.24
2019-01-20T19:52:04.609Z,-2.26
2019-01-20T19:54:32.962Z,-2.26
2019-01-20T19:57:04.497Z,-2.25
2019-01-20T19:59:31.996Z,-2.23
2019-01-20T20:02:05.373Z,-2.23
2019-01-20T20:04:33.794Z,-2.22
2019-01-20T20:07:04.378Z,-2.23
2019-01-20T20:09:36.079Z,-2.24
2019-01-20T20:12:05.022Z,-2.26
2019-01-20T20:14:32.489Z,-2.27
2019-01-20T20:17:02.287Z,-2.30
2019-01-20T20:19:32.388Z,-2.29
2019-01-20T20:22:00.612Z,-2.30
2019-01-20T20:24:28.788Z,-2.28
2019-01-20T20:26:56.301Z,-2.26
2019-01-20T20:29:24.381Z,-2.26
2019-01-20T20:31:52.428Z,-2.28
2019-01-20T20:34:22.245Z,-2.30
2019-01-20T20:36:51.808Z,-2.32
2019-01-20T20:39:20.796Z,-2.33
2019-01-20T20:41:52.878Z,-2.33
2019-01-20T20:44:20.338Z,-2.32
2019-01-20T20:46:49.596Z,-2.29
2019-01-20T20:49:17.710Z,-2.29
2019-01-20T20:51:45.347Z,-2.30
2019-01-20T20:54:12.776Z,-2.32
2019-01-20T20:56:40.247Z,-2.32
2019-01-20T20:59:07.509Z,-2.35
2019-01-20T21:01:35.310Z,-2.37
2019-01-20T21:04:05.044Z,-2.38
2019-01-20T21:06:32.476Z,-2.39
2019-01-20T21:09:00.146Z,-2.39
2019-01-20T21:11:27.617Z,-2.37
2019-01-20T21:13:56.265Z,-2.35
2019-01-20T21:16:23.516Z,-2.35
2019-01-20T21:18:50.704Z,-2.37
2019-01-20T21:21:17.887Z,-2.38
2019-01-20T21:23:45.372Z,-2.40
2019-01-20T21:26:12.607Z,-2.39
2019-01-20T21:28:40.337Z,-2.39
2019-01-20T21:31:07.479Z,-2.41
2019-01-20T21:33:34.679Z,-2.44
2019-01-20T21:36:01.827Z,-2.46
2019-01-20T21:38:28.958Z,-2.45
2019-01-20T21:40:56.409Z,-2.43
2019-01-20T21:43:23.856Z,-2.43
2019-01-20T21:45:50.982Z,-2.43
2019-01-20T21:48:18.110Z,-2.46
2019-01-20T21:50:45.220Z,-2.46
2019-01-20T21:53:12.342Z,-2.45
2019-01-20T21:55:39.415Z,-2.47
2019-01-20T21:58:06.506Z,-2.49
2019-01-20T22:00:34.613Z,-2.48
2019-01-20T22:03:01.724Z,-2.48
2019-01-20T22:05:28.835Z,-2.50
2019-01-20T22:07:55.951Z,-2.54
2019-01-20T22:10:24.121Z,-2.53
2019-01-20T22:12:51.217Z,-2.54
2019-01-20T22:15:18.380Z,-2.54
2019-01-20T22:17:46.049Z,-2.56
2019-01-20T22:20:20.401Z,-2.57
2019-01-20T22:22:47.485Z,-2.60
2019-01-20T22:25:14.793Z,-2.64
2019-01-20T22:27:41.909Z,-2.66
2019-01-20T22:30:14.767Z,-2.69
2019-01-20T22:32:41.799Z,-2.68
2019-01-20T22:35:09.562Z,-2.67
2019-01-20T22:37:36.650Z,-2.65
2019-01-20T22:40:04.757Z,-2.63
2019-01-20T22:42:31.808Z,-2.62
2019-01-20T22:44:58.859Z,-2.61
2019-01-20T22:47:25.885Z,-2.62
2019-01-20T22:49:52.919Z,-2.64
2019-01-20T22:52:20.069Z,-2.63
2019-01-20T22:54:47.081Z,-2.62
2019-01-20T22:57:14.119Z,-2.60
2019-01-20T22:59:41.157Z,-2.57
2019-01-20T23:02:08.230Z,-2.57
2019-01-20T23:04:35.266Z,-2.58
2019-01-20T23:07:02.354Z,-2.63
2019-01-20T23:09:29.389Z,-2.66
2019-01-20T23:11:56.444Z,-2.67
2019-01-20T23:14:26.251Z,-2.68
2019-01-20T23:16:53.289Z,-2.66
2019-01-20T23:19:20.311Z,-2.66
2019-01-20T23:21:47.351Z,-2.67
2019-01-20T23:24:14.375Z,-2.68
2019-01-20T23:26:41.432Z,-2.68
2019-01-20T23:29:08.475Z,-2.71
2019-01-20T23:31:35.520Z,-2.72
2019-01-20T23:34:02.578Z,-2.72
2019-01-20T23:36:29.615Z,-2.73
2019-01-20T23:38:56.662Z,-2.73
2019-01-20T23:41:23.702Z,-2.74
2019-01-20T23:43:50.857Z,-2.74
2019-01-20T23:46:17.894Z,-2.76
2019-01-20T23:48:44.949Z,-2.77
2019-01-20T23:51:11.988Z,-2.79
2019-01-20T23:53:39.128Z,-2.77
2019-01-20T23:56:06.167Z,-2.76
2019-01-20T23:58:33.189Z,-2.75
